sensor_id;sensor_type;location;lat;lon;timestamp;P1;durP1;ratioP1;P2;durP2;ratioP2
1887;SDS011;944;51.574;6.980;2022-12-07T00:00:15;28.43;;;17.73;;
1887;SDS011;944;51.574;6.980;2022-12-07T00:02:43;26.30;;;17.50;;
1887;SDS011;944;51.574;6.980;2022-12-07T00:05:12;26.70;;;17.87;;
1887;SDS011;944;51.574;6.980;2022-12-07T00:07:39;31.10;;;18.03;;
1887;SDS011;944;51.574;6.980;2022-12-07T00:10:08;36.60;;;20.13;;
1887;SDS011;944;51.574;6.980;2022-12-07T00:12:40;27.97;;;18.50;;
1887;SDS011;944;51.574;6.980;2022-12-07T00:15:09;26.33;;;18.80;;
1887;SDS011;944;51.574;6.980;2022-12-07T00:17:40;28.50;;;18.50;;
1887;SDS011;944;51.574;6.980;2022-12-07T00:20:07;28.70;;;18.07;;
1887;SDS011;944;51.574;6.980;2022-12-07T00:22:35;32.83;;;20.97;;
1887;SDS011;944;51.574;6.980;2022-12-07T00:25:04;31.90;;;20.33;;
1887;SDS011;944;51.574;6.980;2022-12-07T00:27:32;34.70;;;21.17;;
1887;SDS011;944;51.574;6.980;2022-12-07T00:30:01;30.30;;;19.37;;
1887;SDS011;944;51.574;6.980;2022-12-07T00:32:29;31.90;;;20.50;;
1887;SDS011;944;51.574;6.980;2022-12-07T00:34:57;32.23;;;21.30;;
1887;SDS011;944;51.574;6.980;2022-12-07T00:37:36;38.57;;;22.97;;
1887;SDS011;944;51.574;6.980;2022-12-07T00:40:04;33.83;;;22.60;;
1887;SDS011;944;51.574;6.980;2022-12-07T00:42:36;35.90;;;22.07;;
1887;SDS011;944;51.574;6.980;2022-12-07T00:45:08;32.90;;;22.63;;
1887;SDS011;944;51.574;6.980;2022-12-07T00:47:42;35.60;;;22.10;;
1887;SDS011;944;51.574;6.980;2022-12-07T00:50:11;34.80;;;23.10;;
1887;SDS011;944;51.574;6.980;2022-12-07T00:52:38;36.73;;;24.30;;
1887;SDS011;944;51.574;6.980;2022-12-07T00:55:08;36.93;;;24.70;;
1887;SDS011;944;51.574;6.980;2022-12-07T00:57:35;39.33;;;24.80;;
1887;SDS011;944;51.574;6.980;2022-12-07T01:00:03;35.83;;;23.13;;
1887;SDS011;944;51.574;6.980;2022-12-07T01:09:00;39.87;;;25.90;;
1887;SDS011;944;51.574;6.980;2022-12-07T01:11:33;46.57;;;27.60;;
1887;SDS011;944;51.574;6.980;2022-12-07T01:14:08;41.10;;;26.17;;
1887;SDS011;944;51.574;6.980;2022-12-07T01:16:55;35.33;;;24.93;;
1887;SDS011;944;51.574;6.980;2022-12-07T01:19:35;40.33;;;25.50;;
1887;SDS011;944;51.574;6.980;2022-12-07T01:22:03;40.50;;;26.60;;
1887;SDS011;944;51.574;6.980;2022-12-07T01:24:37;37.27;;;25.40;;
1887;SDS011;944;51.574;6.980;2022-12-07T01:27:17;49.20;;;26.57;;
1887;SDS011;944;51.574;6.980;2022-12-07T01:30:00;45.23;;;26.77;;
1887;SDS011;944;51.574;6.980;2022-12-07T01:32:41;43.03;;;26.43;;
1887;SDS011;944;51.574;6.980;2022-12-07T01:35:10;36.97;;;25.73;;
1887;SDS011;944;51.574;6.980;2022-12-07T01:37:45;43.33;;;26.90;;
1887;SDS011;944;51.574;6.980;2022-12-07T01:40:12;48.93;;;26.30;;
1887;SDS011;944;51.574;6.980;2022-12-07T01:42:41;43.40;;;28.07;;
1887;SDS011;944;51.574;6.980;2022-12-07T01:45:33;41.60;;;27.73;;
1887;SDS011;944;51.574;6.980;2022-12-07T01:48:08;43.27;;;26.37;;
1887;SDS011;944;51.574;6.980;2022-12-07T01:50:47;41.37;;;28.20;;
1887;SDS011;944;51.574;6.980;2022-12-07T01:53:22;43.93;;;27.97;;
1887;SDS011;944;51.574;6.980;2022-12-07T01:55:55;44.00;;;28.70;;
1887;SDS011;944;51.574;6.980;2022-12-07T01:58:25;41.37;;;27.57;;
1887;SDS011;944;51.574;6.980;2022-12-07T02:00:58;40.90;;;27.23;;
1887;SDS011;944;51.574;6.980;2022-12-07T02:03:32;46.17;;;27.07;;
1887;SDS011;944;51.574;6.980;2022-12-07T02:06:03;52.27;;;27.57;;
1887;SDS011;944;51.574;6.980;2022-12-07T02:08:36;39.50;;;25.93;;
1887;SDS011;944;51.574;6.980;2022-12-07T02:11:05;42.53;;;27.83;;
1887;SDS011;944;51.574;6.980;2022-12-07T02:13:35;47.73;;;28.10;;
1887;SDS011;944;51.574;6.980;2022-12-07T02:16:10;43.83;;;26.10;;
1887;SDS011;944;51.574;6.980;2022-12-07T02:18:55;39.20;;;25.07;;
1887;SDS011;944;51.574;6.980;2022-12-07T02:21:45;45.77;;;26.90;;
1887;SDS011;944;51.574;6.980;2022-12-07T02:24:40;44.50;;;25.90;;
1887;SDS011;944;51.574;6.980;2022-12-07T02:27:37;39.30;;;24.10;;
1887;SDS011;944;51.574;6.980;2022-12-07T02:30:14;41.03;;;23.10;;
1887;SDS011;944;51.574;6.980;2022-12-07T02:32:48;36.00;;;24.80;;
1887;SDS011;944;51.574;6.980;2022-12-07T02:35:25;43.63;;;25.73;;
1887;SDS011;944;51.574;6.980;2022-12-07T02:38:02;41.77;;;25.73;;
1887;SDS011;944;51.574;6.980;2022-12-07T02:40:38;39.10;;;24.60;;
1887;SDS011;944;51.574;6.980;2022-12-07T02:43:11;37.50;;;23.63;;
1887;SDS011;944;51.574;6.980;2022-12-07T02:45:52;33.50;;;22.63;;
1887;SDS011;944;51.574;6.980;2022-12-07T02:48:30;38.90;;;24.40;;
1887;SDS011;944;51.574;6.980;2022-12-07T02:50:59;39.57;;;24.83;;
1887;SDS011;944;51.574;6.980;2022-12-07T02:53:33;41.93;;;24.57;;
1887;SDS011;944;51.574;6.980;2022-12-07T02:56:05;38.17;;;24.43;;
1887;SDS011;944;51.574;6.980;2022-12-07T02:58:50;43.30;;;25.63;;
1887;SDS011;944;51.574;6.980;2022-12-07T03:01:33;46.20;;;26.50;;
1887;SDS011;944;51.574;6.980;2022-12-07T03:04:14;39.77;;;25.07;;
1887;SDS011;944;51.574;6.980;2022-12-07T03:06:58;37.00;;;24.70;;
1887;SDS011;944;51.574;6.980;2022-12-07T03:09:32;48.67;;;25.27;;
1887;SDS011;944;51.574;6.980;2022-12-07T03:12:16;36.97;;;23.30;;
1887;SDS011;944;51.574;6.980;2022-12-07T03:14:49;38.63;;;24.90;;
1887;SDS011;944;51.574;6.980;2022-12-07T03:17:25;41.47;;;25.80;;
1887;SDS011;944;51.574;6.980;2022-12-07T03:20:03;48.00;;;26.77;;
1887;SDS011;944;51.574;6.980;2022-12-07T03:22:47;48.47;;;28.10;;
1887;SDS011;944;51.574;6.980;2022-12-07T03:25:22;45.00;;;27.80;;
1887;SDS011;944;51.574;6.980;2022-12-07T03:27:55;47.43;;;26.27;;
1887;SDS011;944;51.574;6.980;2022-12-07T03:30:33;45.50;;;28.60;;
1887;SDS011;944;51.574;6.980;2022-12-07T03:33:11;51.10;;;28.80;;
1887;SDS011;944;51.574;6.980;2022-12-07T03:36:02;51.33;;;28.73;;
1887;SDS011;944;51.574;6.980;2022-12-07T03:38:36;45.23;;;26.83;;
1887;SDS011;944;51.574;6.980;2022-12-07T03:41:09;47.60;;;28.20;;
1887;SDS011;944;51.574;6.980;2022-12-07T03:43:49;51.00;;;30.70;;
1887;SDS011;944;51.574;6.980;2022-12-07T03:46:17;48.63;;;29.37;;
1887;SDS011;944;51.574;6.980;2022-12-07T03:48:56;52.77;;;28.87;;
1887;SDS011;944;51.574;6.980;2022-12-07T03:51:34;47.30;;;28.70;;
1887;SDS011;944;51.574;6.980;2022-12-07T03:54:13;46.93;;;27.40;;
1887;SDS011;944;51.574;6.980;2022-12-07T03:56:45;49.00;;;28.00;;
1887;SDS011;944;51.574;6.980;2022-12-07T03:59:22;55.77;;;28.10;;
1887;SDS011;944;51.574;6.980;2022-12-07T04:01:51;52.50;;;29.23;;
1887;SDS011;944;51.574;6.980;2022-12-07T04:04:32;47.80;;;28.37;;
1887;SDS011;944;51.574;6.980;2022-12-07T04:07:06;48.63;;;28.60;;
1887;SDS011;944;51.574;6.980;2022-12-07T04:09:36;45.37;;;28.03;;
1887;SDS011;944;51.574;6.980;2022-12-07T04:12:23;45.07;;;26.03;;
1887;SDS011;944;51.574;6.980;2022-12-07T04:14:55;42.00;;;25.50;;
1887;SDS011;944;51.574;6.980;2022-12-07T04:17:22;56.47;;;26.77;;
1887;SDS011;944;51.574;6.980;2022-12-07T04:19:53;40.57;;;25.73;;
1887;SDS011;944;51.574;6.980;2022-12-07T04:22:20;39.77;;;24.17;;
1887;SDS011;944;51.574;6.980;2022-12-07T04:24:47;43.30;;;26.37;;
1887;SDS011;944;51.574;6.980;2022-12-07T04:27:14;42.30;;;25.20;;
1887;SDS011;944;51.574;6.980;2022-12-07T04:29:46;45.70;;;24.67;;
1887;SDS011;944;51.574;6.980;2022-12-07T04:32:14;42.37;;;26.30;;
1887;SDS011;944;51.574;6.980;2022-12-07T04:34:42;47.77;;;27.67;;
1887;SDS011;944;51.574;6.980;2022-12-07T04:37:12;43.80;;;24.90;;
1887;SDS011;944;51.574;6.980;2022-12-07T04:39:41;40.50;;;24.50;;
1887;SDS011;944;51.574;6.980;2022-12-07T04:42:11;40.07;;;24.47;;
1887;SDS011;944;51.574;6.980;2022-12-07T04:44:43;44.67;;;24.03;;
1887;SDS011;944;51.574;6.980;2022-12-07T04:47:10;48.53;;;24.97;;
1887;SDS011;944;51.574;6.980;2022-12-07T04:49:42;43.07;;;24.37;;
1887;SDS011;944;51.574;6.980;2022-12-07T04:52:13;44.03;;;25.90;;
1887;SDS011;944;51.574;6.980;2022-12-07T04:54:45;45.13;;;24.77;;
1887;SDS011;944;51.574;6.980;2022-12-07T04:57:15;40.33;;;24.30;;
1887;SDS011;944;51.574;6.980;2022-12-07T04:59:45;34.80;;;23.17;;
1887;SDS011;944;51.574;6.980;2022-12-07T05:02:13;39.47;;;22.87;;
1887;SDS011;944;51.574;6.980;2022-12-07T05:04:43;40.90;;;23.87;;
1887;SDS011;944;51.574;6.980;2022-12-07T05:07:10;42.80;;;24.70;;
1887;SDS011;944;51.574;6.980;2022-12-07T05:09:38;43.93;;;25.93;;
1887;SDS011;944;51.574;6.980;2022-12-07T05:12:13;41.30;;;25.40;;
1887;SDS011;944;51.574;6.980;2022-12-07T05:14:43;41.37;;;25.40;;
1887;SDS011;944;51.574;6.980;2022-12-07T05:17:12;41.73;;;26.20;;
1887;SDS011;944;51.574;6.980;2022-12-07T05:19:41;48.97;;;24.90;;
1887;SDS011;944;51.574;6.980;2022-12-07T05:22:10;55.70;;;24.97;;
1887;SDS011;944;51.574;6.980;2022-12-07T05:24:44;51.30;;;24.80;;
1887;SDS011;944;51.574;6.980;2022-12-07T05:27:14;48.77;;;25.17;;
1887;SDS011;944;51.574;6.980;2022-12-07T05:29:47;38.93;;;24.40;;
1887;SDS011;944;51.574;6.980;2022-12-07T05:32:24;46.33;;;24.73;;
1887;SDS011;944;51.574;6.980;2022-12-07T05:35:01;42.43;;;24.90;;
1887;SDS011;944;51.574;6.980;2022-12-07T05:38:03;51.10;;;24.90;;
1887;SDS011;944;51.574;6.980;2022-12-07T06:59:26;32.27;;;19.07;;
1887;SDS011;944;51.574;6.980;2022-12-07T07:08:58;29.23;;;16.90;;
1887;SDS011;944;51.574;6.980;2022-12-07T07:12:24;44.33;;;19.57;;
1887;SDS011;944;51.574;6.980;2022-12-07T07:22:55;36.67;;;19.57;;
1887;SDS011;944;51.574;6.980;2022-12-07T07:26:09;34.93;;;17.93;;
1887;SDS011;944;51.574;6.980;2022-12-07T07:28:57;36.43;;;19.70;;
1887;SDS011;944;51.574;6.980;2022-12-07T07:35:16;44.70;;;20.80;;
1887;SDS011;944;51.574;6.980;2022-12-07T07:52:57;31.93;;;17.90;;
1887;SDS011;944;51.574;6.980;2022-12-07T07:55:50;49.33;;;18.77;;
1887;SDS011;944;51.574;6.980;2022-12-07T07:58:35;42.77;;;19.90;;
1887;SDS011;944;51.574;6.980;2022-12-07T08:08:16;41.93;;;17.83;;
1887;SDS011;944;51.574;6.980;2022-12-07T09:50:04;23.23;;;8.70;;
1887;SDS011;944;51.574;6.980;2022-12-07T09:52:38;20.60;;;9.00;;
1887;SDS011;944;51.574;6.980;2022-12-07T09:55:09;29.73;;;12.60;;
1887;SDS011;944;51.574;6.980;2022-12-07T09:57:40;18.43;;;9.23;;
1887;SDS011;944;51.574;6.980;2022-12-07T10:00:11;21.53;;;8.40;;
1887;SDS011;944;51.574;6.980;2022-12-07T10:02:53;26.70;;;9.27;;
1887;SDS011;944;51.574;6.980;2022-12-07T10:05:25;13.90;;;8.50;;
1887;SDS011;944;51.574;6.980;2022-12-07T10:07:57;19.23;;;9.00;;
1887;SDS011;944;51.574;6.980;2022-12-07T10:10:25;22.70;;;8.17;;
1887;SDS011;944;51.574;6.980;2022-12-07T10:12:58;11.63;;;8.33;;
1887;SDS011;944;51.574;6.980;2022-12-07T10:15:43;15.53;;;8.20;;
1887;SDS011;944;51.574;6.980;2022-12-07T10:22:09;16.93;;;8.33;;
1887;SDS011;944;51.574;6.980;2022-12-07T10:24:39;18.77;;;8.50;;
1887;SDS011;944;51.574;6.980;2022-12-07T10:27:16;18.87;;;8.40;;
1887;SDS011;944;51.574;6.980;2022-12-07T10:29:49;20.10;;;7.93;;
1887;SDS011;944;51.574;6.980;2022-12-07T10:32:28;18.20;;;7.73;;
1887;SDS011;944;51.574;6.980;2022-12-07T10:38:41;14.83;;;6.80;;
1887;SDS011;944;51.574;6.980;2022-12-07T10:41:12;19.37;;;7.70;;
1887;SDS011;944;51.574;6.980;2022-12-07T10:43:46;25.77;;;7.47;;
1887;SDS011;944;51.574;6.980;2022-12-07T10:52:23;18.30;;;6.47;;
1887;SDS011;944;51.574;6.980;2022-12-07T10:55:16;16.90;;;6.00;;
1887;SDS011;944;51.574;6.980;2022-12-07T10:58:01;19.70;;;5.20;;
1887;SDS011;944;51.574;6.980;2022-12-07T11:04:18;18.60;;;6.70;;
1887;SDS011;944;51.574;6.980;2022-12-07T11:07:13;18.50;;;6.20;;
1887;SDS011;944;51.574;6.980;2022-12-07T11:10:08;14.27;;;5.70;;
1887;SDS011;944;51.574;6.980;2022-12-07T11:13:09;15.60;;;6.10;;
1887;SDS011;944;51.574;6.980;2022-12-07T11:18:52;26.73;;;5.80;;
1887;SDS011;944;51.574;6.980;2022-12-07T11:21:30;13.60;;;5.27;;
1887;SDS011;944;51.574;6.980;2022-12-07T11:24:06;14.43;;;6.40;;
1887;SDS011;944;51.574;6.980;2022-12-07T11:26:42;19.40;;;6.80;;
1887;SDS011;944;51.574;6.980;2022-12-07T11:29:32;20.87;;;7.70;;
1887;SDS011;944;51.574;6.980;2022-12-07T11:33:03;16.83;;;5.10;;
1887;SDS011;944;51.574;6.980;2022-12-07T11:35:44;18.53;;;5.47;;
1887;SDS011;944;51.574;6.980;2022-12-07T11:38:23;23.47;;;5.70;;
1887;SDS011;944;51.574;6.980;2022-12-07T11:41:01;19.00;;;5.60;;
1887;SDS011;944;51.574;6.980;2022-12-07T11:43:50;11.93;;;4.97;;
1887;SDS011;944;51.574;6.980;2022-12-07T11:46:24;14.53;;;4.93;;
1887;SDS011;944;51.574;6.980;2022-12-07T11:48:57;19.63;;;4.93;;
1887;SDS011;944;51.574;6.980;2022-12-07T11:51:30;23.70;;;4.80;;
1887;SDS011;944;51.574;6.980;2022-12-07T11:54:02;31.57;;;4.50;;
1887;SDS011;944;51.574;6.980;2022-12-07T11:56:38;32.17;;;5.13;;
1887;SDS011;944;51.574;6.980;2022-12-07T12:02:13;12.93;;;4.57;;
1887;SDS011;944;51.574;6.980;2022-12-07T12:04:51;15.90;;;5.40;;
1887;SDS011;944;51.574;6.980;2022-12-07T12:07:22;15.50;;;4.37;;
1887;SDS011;944;51.574;6.980;2022-12-07T12:09:53;12.17;;;3.70;;
1887;SDS011;944;51.574;6.980;2022-12-07T12:12:38;23.93;;;4.23;;
1887;SDS011;944;51.574;6.980;2022-12-07T12:15:38;10.60;;;4.00;;
1887;SDS011;944;51.574;6.980;2022-12-07T12:18:27;14.37;;;4.10;;
1887;SDS011;944;51.574;6.980;2022-12-07T12:25:28;9.20;;;3.47;;
1887;SDS011;944;51.574;6.980;2022-12-07T12:28:05;6.90;;;3.30;;
1887;SDS011;944;51.574;6.980;2022-12-07T14:32:31;18.67;;;6.10;;
1887;SDS011;944;51.574;6.980;2022-12-07T14:36:03;14.40;;;5.87;;
1887;SDS011;944;51.574;6.980;2022-12-07T14:38:58;22.27;;;5.30;;
1887;SDS011;944;51.574;6.980;2022-12-07T14:41:52;9.87;;;4.90;;
1887;SDS011;944;51.574;6.980;2022-12-07T14:51:26;11.50;;;5.70;;
1887;SDS011;944;51.574;6.980;2022-12-07T14:53:57;12.07;;;5.20;;
1887;SDS011;944;51.574;6.980;2022-12-07T14:56:30;9.90;;;5.07;;
1887;SDS011;944;51.574;6.980;2022-12-07T14:59:12;14.40;;;5.80;;
1887;SDS011;944;51.574;6.980;2022-12-07T15:05:18;14.20;;;6.03;;
1887;SDS011;944;51.574;6.980;2022-12-07T15:07:58;16.07;;;7.60;;
1887;SDS011;944;51.574;6.980;2022-12-07T15:21:15;11.47;;;6.80;;
1887;SDS011;944;51.574;6.980;2022-12-07T15:24:13;11.83;;;5.43;;
1887;SDS011;944;51.574;6.980;2022-12-07T16:35:55;28.27;;;7.10;;
1887;SDS011;944;51.574;6.980;2022-12-07T16:39:21;19.20;;;5.40;;
1887;SDS011;944;51.574;6.980;2022-12-07T16:42:12;14.10;;;6.20;;
1887;SDS011;944;51.574;6.980;2022-12-07T16:48:40;9.40;;;5.33;;
1887;SDS011;944;51.574;6.980;2022-12-07T16:51:32;17.27;;;6.00;;
1887;SDS011;944;51.574;6.980;2022-12-07T16:58:25;18.53;;;5.60;;
1887;SDS011;944;51.574;6.980;2022-12-07T17:17:26;9.80;;;4.13;;
